sensor_id;sensor_type;location;lat;lon;timestamp;P1;durP1;ratioP1;P2;durP2;ratioP2
46288;SDS011;63105;46.158;14.604;2023-08-07T00:00:50;2.10;;;1.10;;
46288;SDS011;63105;46.158;14.604;2023-08-07T00:03:15;2.47;;;1.05;;
46288;SDS011;63105;46.158;14.604;2023-08-07T00:05:46;2.50;;;1.10;;
46288;SDS011;63105;46.158;14.604;2023-08-07T00:08:12;1.80;;;0.90;;
46288;SDS011;63105;46.158;14.604;2023-08-07T00:10:37;2.33;;;1.02;;
46288;SDS011;63105;46.158;14.604;2023-08-07T00:13:02;2.00;;;0.90;;
46288;SDS011;63105;46.158;14.604;2023-08-07T00:15:28;1.80;;;0.90;;
46288;SDS011;63105;46.158;14.604;2023-08-07T00:17:54;2.13;;;1.05;;
46288;SDS011;63105;46.158;14.604;2023-08-07T00:20:19;2.47;;;1.23;;
46288;SDS011;63105;46.158;14.604;2023-08-07T00:22:44;2.03;;;1.10;;
46288;SDS011;63105;46.158;14.604;2023-08-07T00:25:09;2.33;;;1.13;;
46288;SDS011;63105;46.158;14.604;2023-08-07T00:27:35;2.08;;;0.95;;
46288;SDS011;63105;46.158;14.604;2023-08-07T00:30:00;2.58;;;1.40;;
46288;SDS011;63105;46.158;14.604;2023-08-07T00:32:25;3.67;;;1.30;;
46288;SDS011;63105;46.158;14.604;2023-08-07T00:34:50;2.67;;;1.40;;
46288;SDS011;63105;46.158;14.604;2023-08-07T00:37:16;2.65;;;1.33;;
46288;SDS011;63105;46.158;14.604;2023-08-07T00:39:41;2.50;;;1.45;;
46288;SDS011;63105;46.158;14.604;2023-08-07T00:42:06;3.05;;;1.70;;
46288;SDS011;63105;46.158;14.604;2023-08-07T00:44:31;2.70;;;1.38;;
46288;SDS011;63105;46.158;14.604;2023-08-07T00:46:57;2.95;;;1.50;;
46288;SDS011;63105;46.158;14.604;2023-08-07T00:49:22;3.50;;;1.60;;
46288;SDS011;63105;46.158;14.604;2023-08-07T00:51:47;3.42;;;1.80;;
46288;SDS011;63105;46.158;14.604;2023-08-07T00:54:14;2.92;;;1.42;;
46288;SDS011;63105;46.158;14.604;2023-08-07T00:56:40;3.25;;;1.70;;
46288;SDS011;63105;46.158;14.604;2023-08-07T00:59:05;3.50;;;1.90;;
46288;SDS011;63105;46.158;14.604;2023-08-07T01:01:31;3.90;;;1.90;;
46288;SDS011;63105;46.158;14.604;2023-08-07T01:03:57;3.75;;;2.08;;
46288;SDS011;63105;46.158;14.604;2023-08-07T01:06:22;3.60;;;2.05;;
46288;SDS011;63105;46.158;14.604;2023-08-07T01:08:47;3.50;;;1.98;;
46288;SDS011;63105;46.158;14.604;2023-08-07T01:13:40;3.78;;;2.53;;
46288;SDS011;63105;46.158;14.604;2023-08-07T01:16:10;3.92;;;2.50;;
46288;SDS011;63105;46.158;14.604;2023-08-07T01:18:38;3.75;;;2.28;;
46288;SDS011;63105;46.158;14.604;2023-08-07T01:21:05;3.42;;;2.08;;
46288;SDS011;63105;46.158;14.604;2023-08-07T01:23:30;4.35;;;2.65;;
46288;SDS011;63105;46.158;14.604;2023-08-07T01:25:56;5.07;;;2.92;;
46288;SDS011;63105;46.158;14.604;2023-08-07T01:28:30;4.70;;;2.80;;
46288;SDS011;63105;46.158;14.604;2023-08-07T01:30:58;4.35;;;2.90;;
46288;SDS011;63105;46.158;14.604;2023-08-07T01:33:26;4.47;;;2.88;;
46288;SDS011;63105;46.158;14.604;2023-08-07T01:35:57;4.57;;;2.83;;
46288;SDS011;63105;46.158;14.604;2023-08-07T01:38:24;4.57;;;2.75;;
46288;SDS011;63105;46.158;14.604;2023-08-07T01:40:49;4.82;;;2.90;;
46288;SDS011;63105;46.158;14.604;2023-08-07T01:43:15;4.50;;;2.75;;
46288;SDS011;63105;46.158;14.604;2023-08-07T01:45:41;5.63;;;3.30;;
46288;SDS011;63105;46.158;14.604;2023-08-07T01:48:06;6.47;;;4.30;;
46288;SDS011;63105;46.158;14.604;2023-08-07T01:50:32;5.80;;;3.45;;
46288;SDS011;63105;46.158;14.604;2023-08-07T01:52:57;4.90;;;3.15;;
46288;SDS011;63105;46.158;14.604;2023-08-07T01:55:22;5.07;;;3.40;;
46288;SDS011;63105;46.158;14.604;2023-08-07T01:57:48;4.90;;;3.15;;
46288;SDS011;63105;46.158;14.604;2023-08-07T02:00:13;6.05;;;3.95;;
46288;SDS011;63105;46.158;14.604;2023-08-07T02:02:38;5.47;;;3.67;;
46288;SDS011;63105;46.158;14.604;2023-08-07T02:05:04;5.32;;;3.50;;
46288;SDS011;63105;46.158;14.604;2023-08-07T02:07:29;6.72;;;3.95;;
46288;SDS011;63105;46.158;14.604;2023-08-07T02:09:55;5.95;;;3.88;;
46288;SDS011;63105;46.158;14.604;2023-08-07T02:12:20;6.15;;;3.50;;
46288;SDS011;63105;46.158;14.604;2023-08-07T02:14:45;4.55;;;3.03;;
46288;SDS011;63105;46.158;14.604;2023-08-07T02:17:11;4.03;;;2.55;;
46288;SDS011;63105;46.158;14.604;2023-08-07T02:19:36;5.28;;;3.40;;
46288;SDS011;63105;46.158;14.604;2023-08-07T02:22:02;5.07;;;3.50;;
46288;SDS011;63105;46.158;14.604;2023-08-07T02:24:27;5.88;;;3.63;;
46288;SDS011;63105;46.158;14.604;2023-08-07T02:26:53;4.80;;;3.20;;
46288;SDS011;63105;46.158;14.604;2023-08-07T02:29:18;4.60;;;2.90;;
46288;SDS011;63105;46.158;14.604;2023-08-07T02:31:43;4.20;;;2.67;;
46288;SDS011;63105;46.158;14.604;2023-08-07T02:34:08;4.50;;;2.67;;
46288;SDS011;63105;46.158;14.604;2023-08-07T02:36:33;4.22;;;2.72;;
46288;SDS011;63105;46.158;14.604;2023-08-07T02:38:59;3.90;;;2.28;;
46288;SDS011;63105;46.158;14.604;2023-08-07T02:41:24;3.75;;;2.25;;
46288;SDS011;63105;46.158;14.604;2023-08-07T02:43:49;4.30;;;2.15;;
46288;SDS011;63105;46.158;14.604;2023-08-07T02:46:14;3.50;;;2.10;;
46288;SDS011;63105;46.158;14.604;2023-08-07T02:48:40;3.45;;;2.17;;
46288;SDS011;63105;46.158;14.604;2023-08-07T02:51:05;4.50;;;2.30;;
46288;SDS011;63105;46.158;14.604;2023-08-07T02:53:31;3.67;;;1.90;;
46288;SDS011;63105;46.158;14.604;2023-08-07T02:55:56;4.57;;;2.20;;
46288;SDS011;63105;46.158;14.604;2023-08-07T02:58:21;4.43;;;1.83;;
46288;SDS011;63105;46.158;14.604;2023-08-07T03:00:47;3.30;;;1.80;;
46288;SDS011;63105;46.158;14.604;2023-08-07T03:03:12;3.30;;;1.80;;
46288;SDS011;63105;46.158;14.604;2023-08-07T03:05:37;3.15;;;1.77;;
46288;SDS011;63105;46.158;14.604;2023-08-07T03:08:02;3.10;;;1.70;;
46288;SDS011;63105;46.158;14.604;2023-08-07T03:10:28;2.85;;;1.60;;
46288;SDS011;63105;46.158;14.604;2023-08-07T03:12:53;3.33;;;1.75;;
46288;SDS011;63105;46.158;14.604;2023-08-07T03:15:18;3.00;;;1.60;;
46288;SDS011;63105;46.158;14.604;2023-08-07T03:17:43;4.13;;;1.75;;
46288;SDS011;63105;46.158;14.604;2023-08-07T03:20:09;4.72;;;1.80;;
46288;SDS011;63105;46.158;14.604;2023-08-07T03:22:35;3.40;;;1.65;;
46288;SDS011;63105;46.158;14.604;2023-08-07T03:25:00;3.33;;;1.70;;
46288;SDS011;63105;46.158;14.604;2023-08-07T03:27:26;3.58;;;2.08;;
46288;SDS011;63105;46.158;14.604;2023-08-07T03:29:51;2.78;;;1.45;;
46288;SDS011;63105;46.158;14.604;2023-08-07T03:32:16;2.25;;;1.15;;
46288;SDS011;63105;46.158;14.604;2023-08-07T03:34:42;2.50;;;1.20;;
46288;SDS011;63105;46.158;14.604;2023-08-07T03:37:07;3.72;;;1.42;;
46288;SDS011;63105;46.158;14.604;2023-08-07T03:39:32;3.33;;;1.38;;
46288;SDS011;63105;46.158;14.604;2023-08-07T03:41:57;2.72;;;1.40;;
46288;SDS011;63105;46.158;14.604;2023-08-07T03:44:23;3.42;;;1.40;;
46288;SDS011;63105;46.158;14.604;2023-08-07T03:46:48;2.10;;;1.10;;
46288;SDS011;63105;46.158;14.604;2023-08-07T03:49:13;2.30;;;1.10;;
46288;SDS011;63105;46.158;14.604;2023-08-07T03:51:39;3.15;;;1.10;;
46288;SDS011;63105;46.158;14.604;2023-08-07T03:54:04;2.60;;;1.30;;
46288;SDS011;63105;46.158;14.604;2023-08-07T03:56:29;2.97;;;1.30;;
46288;SDS011;63105;46.158;14.604;2023-08-07T03:59:01;2.70;;;1.20;;
46288;SDS011;63105;46.158;14.604;2023-08-07T04:01:26;3.20;;;1.05;;
46288;SDS011;63105;46.158;14.604;2023-08-07T04:03:51;2.55;;;1.17;;
46288;SDS011;63105;46.158;14.604;2023-08-07T04:06:16;4.05;;;1.10;;
46288;SDS011;63105;46.158;14.604;2023-08-07T04:08:42;2.75;;;1.30;;
46288;SDS011;63105;46.158;14.604;2023-08-07T04:11:07;2.20;;;1.02;;
46288;SDS011;63105;46.158;14.604;2023-08-07T04:13:33;2.08;;;1.00;;
46288;SDS011;63105;46.158;14.604;2023-08-07T04:15:59;3.05;;;1.10;;
46288;SDS011;63105;46.158;14.604;2023-08-07T04:18:26;2.25;;;1.00;;
46288;SDS011;63105;46.158;14.604;2023-08-07T04:20:55;2.05;;;1.02;;
46288;SDS011;63105;46.158;14.604;2023-08-07T04:23:21;2.40;;;1.02;;
46288;SDS011;63105;46.158;14.604;2023-08-07T04:25:49;1.98;;;0.90;;
46288;SDS011;63105;46.158;14.604;2023-08-07T04:28:15;2.17;;;1.00;;
46288;SDS011;63105;46.158;14.604;2023-08-07T04:30:41;2.38;;;1.00;;
46288;SDS011;63105;46.158;14.604;2023-08-07T04:33:06;1.90;;;0.90;;
46288;SDS011;63105;46.158;14.604;2023-08-07T04:35:32;1.63;;;0.75;;
46288;SDS011;63105;46.158;14.604;2023-08-07T04:37:57;3.05;;;1.00;;
46288;SDS011;63105;46.158;14.604;2023-08-07T04:40:22;1.60;;;0.90;;
46288;SDS011;63105;46.158;14.604;2023-08-07T04:42:51;2.92;;;1.10;;
46288;SDS011;63105;46.158;14.604;2023-08-07T04:45:16;1.80;;;0.95;;
46288;SDS011;63105;46.158;14.604;2023-08-07T04:47:41;3.47;;;1.80;;
46288;SDS011;63105;46.158;14.604;2023-08-07T04:50:07;2.45;;;1.30;;
46288;SDS011;63105;46.158;14.604;2023-08-07T04:52:33;2.17;;;1.05;;
46288;SDS011;63105;46.158;14.604;2023-08-07T04:54:58;2.40;;;1.02;;
46288;SDS011;63105;46.158;14.604;2023-08-07T04:57:23;2.05;;;0.90;;
46288;SDS011;63105;46.158;14.604;2023-08-07T04:59:49;2.50;;;1.33;;
46288;SDS011;63105;46.158;14.604;2023-08-07T05:02:14;3.30;;;1.35;;
46288;SDS011;63105;46.158;14.604;2023-08-07T05:04:39;3.15;;;1.10;;
46288;SDS011;63105;46.158;14.604;2023-08-07T05:07:05;2.45;;;1.23;;
46288;SDS011;63105;46.158;14.604;2023-08-07T05:09:30;2.08;;;1.20;;
46288;SDS011;63105;46.158;14.604;2023-08-07T05:11:55;2.78;;;1.38;;
46288;SDS011;63105;46.158;14.604;2023-08-07T05:14:21;2.50;;;1.40;;
46288;SDS011;63105;46.158;14.604;2023-08-07T05:16:46;2.08;;;1.10;;
46288;SDS011;63105;46.158;14.604;2023-08-07T05:19:12;2.45;;;1.13;;
46288;SDS011;63105;46.158;14.604;2023-08-07T05:21:37;3.08;;;1.50;;
46288;SDS011;63105;46.158;14.604;2023-08-07T05:24:02;4.93;;;2.25;;
46288;SDS011;63105;46.158;14.604;2023-08-07T05:26:27;3.47;;;1.90;;
46288;SDS011;63105;46.158;14.604;2023-08-07T05:28:54;3.75;;;1.75;;
46288;SDS011;63105;46.158;14.604;2023-08-07T05:31:22;2.80;;;1.65;;
46288;SDS011;63105;46.158;14.604;2023-08-07T05:33:47;2.65;;;1.30;;
46288;SDS011;63105;46.158;14.604;2023-08-07T05:36:12;2.47;;;1.20;;
46288;SDS011;63105;46.158;14.604;2023-08-07T05:38:38;1.87;;;1.00;;
46288;SDS011;63105;46.158;14.604;2023-08-07T05:41:03;3.40;;;1.92;;
46288;SDS011;63105;46.158;14.604;2023-08-07T05:43:28;4.95;;;2.90;;
46288;SDS011;63105;46.158;14.604;2023-08-07T05:45:53;4.10;;;2.60;;
46288;SDS011;63105;46.158;14.604;2023-08-07T05:48:18;3.75;;;2.22;;
46288;SDS011;63105;46.158;14.604;2023-08-07T05:50:44;3.72;;;2.00;;
46288;SDS011;63105;46.158;14.604;2023-08-07T05:53:09;4.15;;;2.47;;
46288;SDS011;63105;46.158;14.604;2023-08-07T05:55:34;3.55;;;1.90;;
46288;SDS011;63105;46.158;14.604;2023-08-07T05:58:00;3.47;;;1.90;;
46288;SDS011;63105;46.158;14.604;2023-08-07T06:00:25;3.15;;;1.75;;
46288;SDS011;63105;46.158;14.604;2023-08-07T06:02:50;3.53;;;1.70;;
46288;SDS011;63105;46.158;14.604;2023-08-07T06:05:15;2.85;;;1.52;;
46288;SDS011;63105;46.158;14.604;2023-08-07T06:07:41;2.90;;;1.50;;
46288;SDS011;63105;46.158;14.604;2023-08-07T06:10:07;2.67;;;1.40;;
46288;SDS011;63105;46.158;14.604;2023-08-07T06:12:32;3.30;;;1.70;;
46288;SDS011;63105;46.158;14.604;2023-08-07T06:14:57;3.35;;;1.70;;
46288;SDS011;63105;46.158;14.604;2023-08-07T06:17:22;3.83;;;1.90;;
46288;SDS011;63105;46.158;14.604;2023-08-07T06:19:48;3.22;;;2.05;;
46288;SDS011;63105;46.158;14.604;2023-08-07T06:22:13;3.00;;;1.70;;
46288;SDS011;63105;46.158;14.604;2023-08-07T06:24:38;3.45;;;1.60;;
46288;SDS011;63105;46.158;14.604;2023-08-07T06:27:03;3.50;;;1.88;;
46288;SDS011;63105;46.158;14.604;2023-08-07T06:29:29;3.83;;;2.22;;
46288;SDS011;63105;46.158;14.604;2023-08-07T06:31:54;3.88;;;2.13;;
46288;SDS011;63105;46.158;14.604;2023-08-07T06:34:19;3.80;;;2.10;;
46288;SDS011;63105;46.158;14.604;2023-08-07T06:36:45;3.22;;;1.83;;
46288;SDS011;63105;46.158;14.604;2023-08-07T06:39:10;3.00;;;1.60;;
46288;SDS011;63105;46.158;14.604;2023-08-07T06:41:35;3.17;;;1.80;;
46288;SDS011;63105;46.158;14.604;2023-08-07T06:44:01;2.90;;;1.50;;
46288;SDS011;63105;46.158;14.604;2023-08-07T06:46:26;3.58;;;1.90;;
46288;SDS011;63105;46.158;14.604;2023-08-07T06:48:52;3.22;;;1.65;;
46288;SDS011;63105;46.158;14.604;2023-08-07T06:51:18;3.20;;;1.80;;
46288;SDS011;63105;46.158;14.604;2023-08-07T06:53:43;2.95;;;1.67;;
46288;SDS011;63105;46.158;14.604;2023-08-07T06:56:08;3.28;;;1.70;;
46288;SDS011;63105;46.158;14.604;2023-08-07T06:58:33;3.75;;;1.90;;
46288;SDS011;63105;46.158;14.604;2023-08-07T07:00:59;3.13;;;1.70;;
46288;SDS011;63105;46.158;14.604;2023-08-07T07:03:24;3.10;;;1.67;;
46288;SDS011;63105;46.158;14.604;2023-08-07T07:05:49;3.42;;;1.92;;
46288;SDS011;63105;46.158;14.604;2023-08-07T07:08:15;3.10;;;1.73;;
46288;SDS011;63105;46.158;14.604;2023-08-07T07:10:40;3.00;;;1.60;;
46288;SDS011;63105;46.158;14.604;2023-08-07T07:13:05;3.00;;;1.50;;
46288;SDS011;63105;46.158;14.604;2023-08-07T07:15:32;2.88;;;1.50;;
46288;SDS011;63105;46.158;14.604;2023-08-07T07:17:58;2.55;;;1.50;;
46288;SDS011;63105;46.158;14.604;2023-08-07T07:20:24;2.92;;;1.60;;
46288;SDS011;63105;46.158;14.604;2023-08-07T07:22:49;3.28;;;1.80;;
46288;SDS011;63105;46.158;14.604;2023-08-07T07:25:14;2.53;;;1.30;;
46288;SDS011;63105;46.158;14.604;2023-08-07T07:27:39;3.25;;;1.77;;
46288;SDS011;63105;46.158;14.604;2023-08-07T07:30:06;2.78;;;1.50;;
46288;SDS011;63105;46.158;14.604;2023-08-07T07:32:31;3.33;;;1.90;;
46288;SDS011;63105;46.158;14.604;2023-08-07T07:34:56;3.25;;;1.83;;
46288;SDS011;63105;46.158;14.604;2023-08-07T07:37:21;2.78;;;1.40;;
46288;SDS011;63105;46.158;14.604;2023-08-07T07:39:47;2.40;;;1.38;;
46288;SDS011;63105;46.158;14.604;2023-08-07T07:42:12;3.38;;;1.73;;
46288;SDS011;63105;46.158;14.604;2023-08-07T07:44:37;2.50;;;1.53;;
46288;SDS011;63105;46.158;14.604;2023-08-07T07:47:03;2.97;;;1.55;;
46288;SDS011;63105;46.158;14.604;2023-08-07T07:49:30;3.88;;;1.90;;
46288;SDS011;63105;46.158;14.604;2023-08-07T07:51:55;3.35;;;1.73;;
46288;SDS011;63105;46.158;14.604;2023-08-07T07:54:20;2.83;;;1.50;;
46288;SDS011;63105;46.158;14.604;2023-08-07T07:56:45;3.17;;;1.70;;
46288;SDS011;63105;46.158;14.604;2023-08-07T07:59:11;3.50;;;1.70;;
46288;SDS011;63105;46.158;14.604;2023-08-07T08:01:36;3.28;;;1.80;;
46288;SDS011;63105;46.158;14.604;2023-08-07T08:04:02;2.72;;;1.50;;
46288;SDS011;63105;46.158;14.604;2023-08-07T08:06:27;2.90;;;1.77;;
46288;SDS011;63105;46.158;14.604;2023-08-07T08:08:53;3.65;;;2.00;;
46288;SDS011;63105;46.158;14.604;2023-08-07T08:11:18;3.33;;;1.73;;
46288;SDS011;63105;46.158;14.604;2023-08-07T08:13:43;3.13;;;1.65;;
46288;SDS011;63105;46.158;14.604;2023-08-07T08:16:08;3.00;;;1.42;;
46288;SDS011;63105;46.158;14.604;2023-08-07T08:18:34;3.20;;;1.80;;
46288;SDS011;63105;46.158;14.604;2023-08-07T08:20:59;3.42;;;1.70;;
46288;SDS011;63105;46.158;14.604;2023-08-07T08:23:24;2.90;;;1.33;;
46288;SDS011;63105;46.158;14.604;2023-08-07T08:25:49;3.33;;;1.60;;
46288;SDS011;63105;46.158;14.604;2023-08-07T08:28:16;3.08;;;1.45;;
46288;SDS011;63105;46.158;14.604;2023-08-07T08:30:42;2.70;;;1.30;;
46288;SDS011;63105;46.158;14.604;2023-08-07T08:33:07;2.42;;;1.10;;
46288;SDS011;63105;46.158;14.604;2023-08-07T08:35:34;2.08;;;1.15;;
46288;SDS011;63105;46.158;14.604;2023-08-07T08:37:59;2.53;;;1.35;;
46288;SDS011;63105;46.158;14.604;2023-08-07T08:40:24;2.88;;;1.50;;
46288;SDS011;63105;46.158;14.604;2023-08-07T08:42:50;2.63;;;1.58;;
46288;SDS011;63105;46.158;14.604;2023-08-07T08:45:16;2.88;;;1.50;;
46288;SDS011;63105;46.158;14.604;2023-08-07T08:47:42;3.85;;;1.60;;
46288;SDS011;63105;46.158;14.604;2023-08-07T08:50:12;3.28;;;1.58;;
46288;SDS011;63105;46.158;14.604;2023-08-07T08:52:40;2.38;;;1.13;;
46288;SDS011;63105;46.158;14.604;2023-08-07T08:55:05;2.55;;;1.20;;
46288;SDS011;63105;46.158;14.604;2023-08-07T08:57:31;2.25;;;1.10;;
46288;SDS011;63105;46.158;14.604;2023-08-07T08:59:57;2.38;;;1.17;;
46288;SDS011;63105;46.158;14.604;2023-08-07T09:02:23;2.22;;;1.15;;
46288;SDS011;63105;46.158;14.604;2023-08-07T09:04:50;1.95;;;1.00;;
46288;SDS011;63105;46.158;14.604;2023-08-07T09:07:15;2.40;;;1.17;;
46288;SDS011;63105;46.158;14.604;2023-08-07T09:09:41;3.05;;;1.50;;
46288;SDS011;63105;46.158;14.604;2023-08-07T09:12:12;4.03;;;1.65;;
46288;SDS011;63105;46.158;14.604;2023-08-07T09:14:41;2.47;;;1.20;;
46288;SDS011;63105;46.158;14.604;2023-08-07T09:17:06;3.42;;;1.20;;
46288;SDS011;63105;46.158;14.604;2023-08-07T09:19:32;2.83;;;1.20;;
46288;SDS011;63105;46.158;14.604;2023-08-07T09:21:57;2.55;;;1.20;;
46288;SDS011;63105;46.158;14.604;2023-08-07T09:24:23;2.70;;;1.25;;
46288;SDS011;63105;46.158;14.604;2023-08-07T09:26:48;2.72;;;1.30;;
46288;SDS011;63105;46.158;14.604;2023-08-07T09:29:15;1.88;;;0.98;;
46288;SDS011;63105;46.158;14.604;2023-08-07T09:31:43;2.40;;;1.10;;
46288;SDS011;63105;46.158;14.604;2023-08-07T09:34:10;2.80;;;1.30;;
46288;SDS011;63105;46.158;14.604;2023-08-07T09:36:35;3.88;;;1.80;;
46288;SDS011;63105;46.158;14.604;2023-08-07T09:39:01;3.58;;;1.50;;
46288;SDS011;63105;46.158;14.604;2023-08-07T09:41:28;1.95;;;1.10;;
46288;SDS011;63105;46.158;14.604;2023-08-07T09:43:53;3.10;;;1.40;;
46288;SDS011;63105;46.158;14.604;2023-08-07T09:46:19;2.80;;;1.38;;
46288;SDS011;63105;46.158;14.604;2023-08-07T09:48:44;2.27;;;1.20;;
46288;SDS011;63105;46.158;14.604;2023-08-07T09:51:10;1.98;;;1.00;;
46288;SDS011;63105;46.158;14.604;2023-08-07T09:53:35;1.88;;;0.93;;
46288;SDS011;63105;46.158;14.604;2023-08-07T09:56:00;2.38;;;1.20;;
46288;SDS011;63105;46.158;14.604;2023-08-07T09:58:26;2.60;;;1.10;;
46288;SDS011;63105;46.158;14.604;2023-08-07T10:00:51;2.15;;;1.00;;
46288;SDS011;63105;46.158;14.604;2023-08-07T10:03:24;2.20;;;0.88;;
46288;SDS011;63105;46.158;14.604;2023-08-07T10:05:50;3.15;;;1.00;;
46288;SDS011;63105;46.158;14.604;2023-08-07T10:08:15;2.05;;;0.98;;
46288;SDS011;63105;46.158;14.604;2023-08-07T10:10:41;1.45;;;0.77;;
46288;SDS011;63105;46.158;14.604;2023-08-07T10:13:06;1.55;;;0.90;;
46288;SDS011;63105;46.158;14.604;2023-08-07T10:15:32;1.77;;;0.88;;
46288;SDS011;63105;46.158;14.604;2023-08-07T10:17:59;1.52;;;0.70;;
46288;SDS011;63105;46.158;14.604;2023-08-07T10:20:25;1.60;;;0.80;;
46288;SDS011;63105;46.158;14.604;2023-08-07T10:22:51;1.77;;;0.80;;
46288;SDS011;63105;46.158;14.604;2023-08-07T10:25:17;1.50;;;0.70;;
46288;SDS011;63105;46.158;14.604;2023-08-07T10:27:45;2.10;;;0.70;;
46288;SDS011;63105;46.158;14.604;2023-08-07T10:30:11;1.50;;;0.70;;
46288;SDS011;63105;46.158;14.604;2023-08-07T10:32:41;2.10;;;0.90;;
46288;SDS011;63105;46.158;14.604;2023-08-07T10:35:07;2.10;;;0.80;;
46288;SDS011;63105;46.158;14.604;2023-08-07T10:40:01;0.90;;;0.50;;
46288;SDS011;63105;46.158;14.604;2023-08-07T10:42:26;1.15;;;0.60;;
46288;SDS011;63105;46.158;14.604;2023-08-07T10:44:52;1.60;;;0.70;;
46288;SDS011;63105;46.158;14.604;2023-08-07T10:47:17;0.97;;;0.60;;
46288;SDS011;63105;46.158;14.604;2023-08-07T10:49:57;1.48;;;0.68;;
46288;SDS011;63105;46.158;14.604;2023-08-07T10:52:24;1.03;;;0.50;;
46288;SDS011;63105;46.158;14.604;2023-08-07T10:54:50;1.60;;;0.50;;
46288;SDS011;63105;46.158;14.604;2023-08-07T10:57:15;1.33;;;0.47;;
46288;SDS011;63105;46.158;14.604;2023-08-07T10:59:51;0.75;;;0.45;;
46288;SDS011;63105;46.158;14.604;2023-08-07T11:02:25;1.00;;;0.50;;
46288;SDS011;63105;46.158;14.604;2023-08-07T11:04:54;1.23;;;0.60;;
46288;SDS011;63105;46.158;14.604;2023-08-07T11:07:27;1.25;;;0.50;;
46288;SDS011;63105;46.158;14.604;2023-08-07T11:09:53;1.75;;;0.50;;
46288;SDS011;63105;46.158;14.604;2023-08-07T11:12:18;0.93;;;0.50;;
46288;SDS011;63105;46.158;14.604;2023-08-07T11:14:43;0.50;;;0.38;;
46288;SDS011;63105;46.158;14.604;2023-08-07T11:17:09;1.53;;;0.53;;
46288;SDS011;63105;46.158;14.604;2023-08-07T11:19:34;0.70;;;0.40;;
46288;SDS011;63105;46.158;14.604;2023-08-07T11:22:00;0.47;;;0.40;;
46288;SDS011;63105;46.158;14.604;2023-08-07T11:24:26;0.65;;;0.30;;
46288;SDS011;63105;46.158;14.604;2023-08-07T11:26:52;0.88;;;0.45;;
46288;SDS011;63105;46.158;14.604;2023-08-07T11:29:17;1.30;;;0.52;;
46288;SDS011;63105;46.158;14.604;2023-08-07T11:31:43;2.58;;;1.25;;
46288;SDS011;63105;46.158;14.604;2023-08-07T11:34:08;1.93;;;1.00;;
46288;SDS011;63105;46.158;14.604;2023-08-07T11:36:40;2.03;;;0.90;;
46288;SDS011;63105;46.158;14.604;2023-08-07T11:39:05;1.67;;;0.80;;
46288;SDS011;63105;46.158;14.604;2023-08-07T11:41:31;1.95;;;0.85;;
46288;SDS011;63105;46.158;14.604;2023-08-07T11:43:56;2.15;;;0.90;;
46288;SDS011;63105;46.158;14.604;2023-08-07T11:46:21;2.55;;;1.00;;
46288;SDS011;63105;46.158;14.604;2023-08-07T11:48:47;2.30;;;0.90;;
46288;SDS011;63105;46.158;14.604;2023-08-07T11:51:12;3.40;;;1.15;;
46288;SDS011;63105;46.158;14.604;2023-08-07T11:53:39;1.98;;;1.00;;
46288;SDS011;63105;46.158;14.604;2023-08-07T11:56:05;1.60;;;0.80;;
46288;SDS011;63105;46.158;14.604;2023-08-07T11:58:34;2.17;;;0.90;;
46288;SDS011;63105;46.158;14.604;2023-08-07T12:01:03;1.65;;;0.80;;
46288;SDS011;63105;46.158;14.604;2023-08-07T12:03:30;1.60;;;0.73;;
46288;SDS011;63105;46.158;14.604;2023-08-07T12:05:57;1.50;;;0.68;;
46288;SDS011;63105;46.158;14.604;2023-08-07T12:08:22;1.75;;;0.68;;
46288;SDS011;63105;46.158;14.604;2023-08-07T12:10:53;1.27;;;0.68;;
46288;SDS011;63105;46.158;14.604;2023-08-07T12:13:25;1.42;;;0.68;;
46288;SDS011;63105;46.158;14.604;2023-08-07T12:15:53;1.35;;;0.70;;
46288;SDS011;63105;46.158;14.604;2023-08-07T12:18:22;1.77;;;0.77;;
46288;SDS011;63105;46.158;14.604;2023-08-07T12:20:51;1.45;;;0.60;;
46288;SDS011;63105;46.158;14.604;2023-08-07T12:23:17;1.48;;;0.77;;
46288;SDS011;63105;46.158;14.604;2023-08-07T12:25:43;1.10;;;0.60;;
46288;SDS011;63105;46.158;14.604;2023-08-07T12:28:08;3.08;;;0.80;;
46288;SDS011;63105;46.158;14.604;2023-08-07T12:30:34;2.33;;;0.68;;
46288;SDS011;63105;46.158;14.604;2023-08-07T12:32:59;1.98;;;0.80;;
46288;SDS011;63105;46.158;14.604;2023-08-07T12:35:24;1.53;;;0.63;;
46288;SDS011;63105;46.158;14.604;2023-08-07T12:37:50;2.07;;;0.80;;
46288;SDS011;63105;46.158;14.604;2023-08-07T12:40:15;1.92;;;0.90;;
46288;SDS011;63105;46.158;14.604;2023-08-07T12:42:44;1.17;;;0.50;;
46288;SDS011;63105;46.158;14.604;2023-08-07T12:45:09;1.30;;;0.57;;
46288;SDS011;63105;46.158;14.604;2023-08-07T12:47:35;1.13;;;0.55;;
46288;SDS011;63105;46.158;14.604;2023-08-07T12:50:00;3.07;;;0.80;;
46288;SDS011;63105;46.158;14.604;2023-08-07T12:52:25;1.13;;;0.60;;
46288;SDS011;63105;46.158;14.604;2023-08-07T12:54:50;1.23;;;0.60;;
46288;SDS011;63105;46.158;14.604;2023-08-07T12:57:16;1.90;;;0.60;;
46288;SDS011;63105;46.158;14.604;2023-08-07T12:59:41;1.50;;;0.50;;
46288;SDS011;63105;46.158;14.604;2023-08-07T13:02:06;0.68;;;0.40;;
46288;SDS011;63105;46.158;14.604;2023-08-07T13:04:31;1.23;;;0.60;;
46288;SDS011;63105;46.158;14.604;2023-08-07T13:06:58;0.93;;;0.40;;
46288;SDS011;63105;46.158;14.604;2023-08-07T13:09:24;2.03;;;0.50;;
46288;SDS011;63105;46.158;14.604;2023-08-07T13:11:49;1.27;;;0.50;;
46288;SDS011;63105;46.158;14.604;2023-08-07T13:14:14;0.68;;;0.40;;
46288;SDS011;63105;46.158;14.604;2023-08-07T13:16:40;0.50;;;0.20;;
46288;SDS011;63105;46.158;14.604;2023-08-07T13:19:05;0.63;;;0.30;;
46288;SDS011;63105;46.158;14.604;2023-08-07T13:21:30;0.80;;;0.40;;
46288;SDS011;63105;46.158;14.604;2023-08-07T13:23:55;0.40;;;0.30;;
46288;SDS011;63105;46.158;14.604;2023-08-07T13:26:21;0.80;;;0.40;;
46288;SDS011;63105;46.158;14.604;2023-08-07T13:28:46;0.70;;;0.30;;
46288;SDS011;63105;46.158;14.604;2023-08-07T13:31:12;0.77;;;0.40;;
46288;SDS011;63105;46.158;14.604;2023-08-07T13:33:37;0.77;;;0.30;;
46288;SDS011;63105;46.158;14.604;2023-08-07T13:36:02;1.13;;;0.38;;
46288;SDS011;63105;46.158;14.604;2023-08-07T13:38:27;0.52;;;0.30;;
46288;SDS011;63105;46.158;14.604;2023-08-07T13:40:53;1.13;;;0.25;;
46288;SDS011;63105;46.158;14.604;2023-08-07T13:43:18;0.53;;;0.20;;
46288;SDS011;63105;46.158;14.604;2023-08-07T13:45:43;0.40;;;0.20;;
46288;SDS011;63105;46.158;14.604;2023-08-07T13:48:09;0.25;;;0.20;;
46288;SDS011;63105;46.158;14.604;2023-08-07T13:50:34;0.65;;;0.30;;
46288;SDS011;63105;46.158;14.604;2023-08-07T13:53:00;0.55;;;0.28;;
46288;SDS011;63105;46.158;14.604;2023-08-07T13:55:25;1.80;;;0.30;;
46288;SDS011;63105;46.158;14.604;2023-08-07T13:57:50;0.93;;;0.30;;
46288;SDS011;63105;46.158;14.604;2023-08-07T14:00:16;1.97;;;0.40;;
46288;SDS011;63105;46.158;14.604;2023-08-07T14:02:41;1.52;;;0.38;;
46288;SDS011;63105;46.158;14.604;2023-08-07T14:05:06;0.50;;;0.20;;
46288;SDS011;63105;46.158;14.604;2023-08-07T14:07:32;0.28;;;0.20;;
46288;SDS011;63105;46.158;14.604;2023-08-07T14:09:57;0.50;;;0.30;;
46288;SDS011;63105;46.158;14.604;2023-08-07T14:12:22;2.65;;;0.40;;
46288;SDS011;63105;46.158;14.604;2023-08-07T14:14:47;0.47;;;0.30;;
46288;SDS011;63105;46.158;14.604;2023-08-07T14:17:13;0.37;;;0.20;;
46288;SDS011;63105;46.158;14.604;2023-08-07T14:19:38;0.98;;;0.30;;
46288;SDS011;63105;46.158;14.604;2023-08-07T14:22:03;0.65;;;0.28;;
46288;SDS011;63105;46.158;14.604;2023-08-07T14:24:29;1.20;;;0.30;;
46288;SDS011;63105;46.158;14.604;2023-08-07T14:26:54;0.68;;;0.30;;
46288;SDS011;63105;46.158;14.604;2023-08-07T14:29:19;0.65;;;0.20;;